createdAt,value
2022-08-22T00:00:06.813Z,84.77
2022-08-22T00:01:08.016Z,85.38
2022-08-22T00:02:08.994Z,85.11
2022-08-22T00:02:48.150Z,73.88
2022-08-22T00:02:48.679Z,77.20
2022-08-22T00:02:49.791Z,81.79
2022-08-22T00:02:53.826Z,78.35
2022-08-22T00:02:55.897Z,79.27
2022-08-22T00:03:00.025Z,80.64
2022-08-22T00:03:02.037Z,78.79
2022-08-22T00:03:04.340Z,81.75
2022-08-22T00:03:07.041Z,85.08
2022-08-22T00:03:22.761Z,84.27
2022-08-22T00:04:09.896Z,85.58
2022-08-22T00:05:07.735Z,84.71
2022-08-22T00:06:08.389Z,85.31
2022-08-22T00:07:08.036Z,85.02
2022-08-22T00:08:08.167Z,85.31
2022-08-22T00:09:08.416Z,85.52
2022-08-22T00:10:08.901Z,85.52
2022-08-22T00:11:08.649Z,85.31
2022-08-22T00:12:08.808Z,85.02
2022-08-22T00:13:08.966Z,85.42
2022-08-22T00:14:09.887Z,85.42
2022-08-22T00:15:16.368Z,85.93
2022-08-22T00:16:10.395Z,85.56
2022-08-22T00:17:09.542Z,86.33
2022-08-22T00:18:10.392Z,86.67
2022-08-22T00:19:43.313Z,86.43
2022-08-22T00:20:10.444Z,86.57
2022-08-22T00:21:10.926Z,85.76
2022-08-22T00:22:10.465Z,85.56
2022-08-22T00:23:10.616Z,86.57
2022-08-22T00:24:11.436Z,85.86
2022-08-22T00:25:25.431Z,85.86
2022-08-22T00:26:12.175Z,85.86
2022-08-22T00:27:11.315Z,86.27
2022-08-22T00:28:11.506Z,86.47
2022-08-22T00:29:12.431Z,86.16
2022-08-22T00:30:11.807Z,86.07
2022-08-22T00:31:12.962Z,86.98
2022-08-22T00:32:12.196Z,86.67
2022-08-22T00:33:12.354Z,86.77
2022-08-22T00:34:13.436Z,86.67
2022-08-22T00:35:12.699Z,87.08
2022-08-22T00:36:12.863Z,87.28
2022-08-22T00:37:13.017Z,87.28
2022-08-22T00:38:13.181Z,86.98
2022-08-22T00:39:13.342Z,86.77
2022-08-22T00:40:13.566Z,86.71
2022-08-22T00:41:13.680Z,87.02
2022-08-22T00:42:13.838Z,87.08
2022-08-22T00:43:14.941Z,86.41
2022-08-22T00:44:14.197Z,86.57
2022-08-22T00:45:14.361Z,86.10
2022-08-22T00:46:15.438Z,86.51
2022-08-22T00:47:14.687Z,86.61
2022-08-22T00:48:14.842Z,86.35
2022-08-22T00:49:47.900Z,86.65
2022-08-22T00:50:15.136Z,87.42
2022-08-22T00:51:15.279Z,87.36
2022-08-22T00:52:15.437Z,87.36
2022-08-22T00:53:15.628Z,87.42
2022-08-22T00:54:17.619Z,87.32
2022-08-22T00:55:52.404Z,87.46
2022-08-22T00:56:16.201Z,87.26
2022-08-22T00:57:16.349Z,87.56
2022-08-22T00:58:16.498Z,87.42
2022-08-22T00:59:23.268Z,87.87
2022-08-22T01:00:17.786Z,88.02
2022-08-22T01:01:17.093Z,87.16
2022-08-22T01:02:18.009Z,87.36
2022-08-22T01:03:18.038Z,87.77
2022-08-22T01:04:17.425Z,87.77
2022-08-22T01:05:18.529Z,87.56
2022-08-22T01:06:17.811Z,87.77
2022-08-22T01:07:18.520Z,87.77
2022-08-22T01:08:19.013Z,87.56
2022-08-22T01:09:18.282Z,87.77
2022-08-22T01:10:18.418Z,88.37
2022-08-22T01:11:18.583Z,88.57
2022-08-22T01:12:18.768Z,88.48
2022-08-22T01:13:19.519Z,88.88
2022-08-22T01:14:19.148Z,89.59
2022-08-22T01:15:19.332Z,89.59
2022-08-22T01:16:20.016Z,89.69
2022-08-22T01:17:19.655Z,89.53
2022-08-22T01:18:19.793Z,89.43
2022-08-22T01:19:20.515Z,89.79
2022-08-22T01:20:20.169Z,88.82
2022-08-22T01:21:24.091Z,89.73
2022-08-22T01:22:20.478Z,89.02
2022-08-22T01:23:20.629Z,89.23
2022-08-22T01:24:21.518Z,89.67
2022-08-22T01:25:25.861Z,89.32
2022-08-22T01:26:22.147Z,89.77
2022-08-22T01:27:21.333Z,89.83
2022-08-22T01:28:22.851Z,89.12
2022-08-22T01:29:28.198Z,89.23
2022-08-22T01:30:23.903Z,88.96
2022-08-22T01:31:22.009Z,89.26
2022-08-22T01:32:23.019Z,89.57
2022-08-22T01:33:22.366Z,89.47
2022-08-22T01:34:23.019Z,89.47
2022-08-22T01:35:22.653Z,89.63
2022-08-22T01:36:22.793Z,89.87
2022-08-22T01:37:22.919Z,90.69
2022-08-22T01:38:23.057Z,90.08
2022-08-22T01:39:23.234Z,89.67
2022-08-22T01:40:23.878Z,89.87
2022-08-22T01:41:24.524Z,90.58
2022-08-22T01:42:24.535Z,90.18
2022-08-22T01:43:58.677Z,90.28
2022-08-22T01:44:25.150Z,90.18
2022-08-22T01:45:24.241Z,90.12
2022-08-22T01:46:25.028Z,90.58
2022-08-22T01:47:24.566Z,90.62
2022-08-22T01:48:24.704Z,90.69
2022-08-22T01:49:25.524Z,90.69
2022-08-22T01:50:58.950Z,91.03
2022-08-22T01:51:25.187Z,90.69
2022-08-22T01:52:25.336Z,90.89
2022-08-22T01:53:25.467Z,90.42
2022-08-22T01:54:26.563Z,90.79
2022-08-22T01:55:26.068Z,91.19
2022-08-22T01:56:25.980Z,90.79
2022-08-22T01:57:26.168Z,91.09
2022-08-22T01:58:26.332Z,91.09
2022-08-22T01:59:33.692Z,90.89
2022-08-22T02:00:34.743Z,90.62
2022-08-22T02:01:28.708Z,91.09
2022-08-22T02:02:26.984Z,91.03
2022-08-22T02:03:27.102Z,91.94
2022-08-22T02:04:27.261Z,91.74
2022-08-22T02:05:28.078Z,91.74
2022-08-22T02:06:27.562Z,91.74
2022-08-22T02:07:31.925Z,91.44
2022-08-22T02:08:28.556Z,91.54
2022-08-22T02:09:28.569Z,91.74
2022-08-22T02:10:28.336Z,92.35
2022-08-22T02:11:29.061Z,92.76
2022-08-22T02:12:28.686Z,92.14
2022-08-22T02:13:28.819Z,92.35
2022-08-22T02:14:29.054Z,92.35
2022-08-22T02:15:29.218Z,92.55
2022-08-22T02:16:30.062Z,92.35
2022-08-22T02:17:29.578Z,91.44
2022-08-22T02:18:29.722Z,91.44
2022-08-22T02:19:29.874Z,91.64
2022-08-22T02:20:30.582Z,91.74
2022-08-22T02:21:31.065Z,91.34
2022-08-22T02:22:30.452Z,91.68
2022-08-22T02:23:30.591Z,91.78
2022-08-22T02:24:30.750Z,92.40
2022-08-22T02:25:30.907Z,92.25
2022-08-22T02:26:31.568Z,92.29
2022-08-22T02:27:31.733Z,92.45
2022-08-22T02:28:31.408Z,92.40
2022-08-22T02:29:31.561Z,92.40
2022-08-22T02:30:31.726Z,92.49
2022-08-22T02:31:31.862Z,92.19
2022-08-22T02:32:32.027Z,92.19
2022-08-22T02:33:32.158Z,92.35
2022-08-22T02:34:32.286Z,92.29
2022-08-22T02:35:32.430Z,92.19
2022-08-22T02:36:32.567Z,92.19
2022-08-22T02:37:32.722Z,92.29
2022-08-22T02:38:33.566Z,92.35
2022-08-22T02:39:33.057Z,92.25
2022-08-22T02:40:33.196Z,91.94
2022-08-22T02:41:33.579Z,91.78
2022-08-22T02:42:33.472Z,91.99
2022-08-22T02:43:33.601Z,92.19
2022-08-22T02:44:34.571Z,92.60
2022-08-22T02:45:34.569Z,92.40
2022-08-22T02:46:34.080Z,92.29
2022-08-22T02:47:34.236Z,92.44
2022-08-22T02:48:35.071Z,92.70
2022-08-22T02:49:34.551Z,93.10
2022-08-22T02:50:35.783Z,92.80
2022-08-22T02:52:08.426Z,92.80
2022-08-22T02:52:35.144Z,92.70
2022-08-22T02:53:36.303Z,93.10
2022-08-22T02:54:35.431Z,92.90
2022-08-22T02:55:35.570Z,93.21
2022-08-22T02:56:36.115Z,92.86
2022-08-22T02:57:39.613Z,92.90
2022-08-22T02:58:36.006Z,92.86
2022-08-22T02:59:36.150Z,92.80
2022-08-22T03:00:36.306Z,92.86
2022-08-22T03:01:36.624Z,92.86
2022-08-22T03:02:37.613Z,93.10
2022-08-22T03:03:36.845Z,92.49
2022-08-22T03:04:36.986Z,92.80
2022-08-22T03:05:37.120Z,93.10
2022-08-22T03:06:37.618Z,92.80
2022-08-22T03:07:37.473Z,93.00
2022-08-22T03:08:47.348Z,93.10
2022-08-22T03:09:38.968Z,92.94
2022-08-22T03:10:38.609Z,93.00
2022-08-22T03:11:38.254Z,93.71
2022-08-22T03:12:38.430Z,93.10
2022-08-22T03:13:38.567Z,92.90
2022-08-22T03:14:38.735Z,93.61
2022-08-22T03:15:38.870Z,93.21
2022-08-22T03:16:39.617Z,93.10
2022-08-22T03:17:39.237Z,93.41
2022-08-22T03:18:39.383Z,93.21
2022-08-22T03:19:40.606Z,93.00
2022-08-22T03:20:41.131Z,93.00
2022-08-22T03:21:39.973Z,93.21
2022-08-22T03:22:41.114Z,93.30
2022-08-22T03:23:40.397Z,93.30
2022-08-22T03:24:40.624Z,93.76
2022-08-22T03:25:40.753Z,93.10
2022-08-22T03:26:40.920Z,93.10
2022-08-22T03:27:41.045Z,93.76
2022-08-22T03:28:59.227Z,93.30
2022-08-22T03:29:42.376Z,92.90
2022-08-22T03:30:41.628Z,92.94
2022-08-22T03:31:42.620Z,92.70
2022-08-22T03:32:41.958Z,93.05
2022-08-22T03:33:42.194Z,93.15
2022-08-22T03:34:42.464Z,93.35
2022-08-22T03:35:42.626Z,93.96
2022-08-22T03:36:42.742Z,94.46
2022-08-22T03:37:42.976Z,93.96
2022-08-22T03:38:43.617Z,94.17
2022-08-22T03:39:44.163Z,94.17
2022-08-22T03:40:43.473Z,94.06
2022-08-22T03:41:44.127Z,94.37
2022-08-22T03:42:44.618Z,94.17
2022-08-22T03:43:44.623Z,94.37
2022-08-22T03:44:45.127Z,94.37
2022-08-22T03:45:44.267Z,93.86
2022-08-22T03:46:44.455Z,94.37
2022-08-22T03:47:44.607Z,94.26
2022-08-22T03:48:44.751Z,94.17
2022-08-22T03:49:44.886Z,94.06
2022-08-22T03:50:45.048Z,94.17
2022-08-22T03:51:45.242Z,94.06
2022-08-22T03:53:18.999Z,94.37
2022-08-22T03:53:45.497Z,93.76
2022-08-22T03:54:45.633Z,94.21
2022-08-22T03:55:45.798Z,94.10
2022-08-22T03:56:45.947Z,94.61
2022-08-22T03:57:46.189Z,94.61
2022-08-22T03:58:46.356Z,94.61
2022-08-22T03:59:46.495Z,94.61
2022-08-22T04:00:46.726Z,94.61
2022-08-22T04:01:47.902Z,94.51
2022-08-22T04:02:47.667Z,94.41
2022-08-22T04:03:47.186Z,94.82
2022-08-22T04:04:47.675Z,94.21
2022-08-22T04:05:47.549Z,94.41
2022-08-22T04:06:48.672Z,94.61
2022-08-22T04:07:47.826Z,94.66
2022-08-22T04:08:48.003Z,95.06
2022-08-22T04:09:48.150Z,94.76
2022-08-22T04:10:49.164Z,95.47
2022-08-22T04:11:48.527Z,95.47
2022-08-22T04:12:48.692Z,95.47
2022-08-22T04:13:48.840Z,95.67
2022-08-22T04:14:48.986Z,95.37
2022-08-22T04:15:49.144Z,95.26
2022-08-22T04:16:49.283Z,95.78
2022-08-22T04:17:49.467Z,95.47
2022-08-22T04:18:49.630Z,95.47
2022-08-22T04:19:49.807Z,95.57
2022-08-22T04:20:49.942Z,95.37
2022-08-22T04:21:50.083Z,95.82
2022-08-22T04:23:23.650Z,95.98
2022-08-22T04:23:50.364Z,95.67
2022-08-22T04:24:52.200Z,95.78
2022-08-22T04:25:50.708Z,95.41
2022-08-22T04:26:50.836Z,95.67
2022-08-22T04:27:50.998Z,95.87
2022-08-22T04:28:51.207Z,95.57
2022-08-22T04:29:51.381Z,95.47
2022-08-22T04:30:51.722Z,95.57
2022-08-22T04:31:51.732Z,95.32
2022-08-22T04:32:51.884Z,95.57
2022-08-22T04:33:52.711Z,95.17
2022-08-22T04:34:52.200Z,94.96
2022-08-22T04:35:52.719Z,94.71
2022-08-22T04:36:52.482Z,94.61
2022-08-22T04:37:52.700Z,94.86
2022-08-22T04:38:52.777Z,95.17
2022-08-22T04:39:52.994Z,94.66
2022-08-22T04:40:53.066Z,94.66
2022-08-22T04:41:53.212Z,94.71
2022-08-22T04:42:53.364Z,94.82
2022-08-22T04:43:53.535Z,95.12
2022-08-22T04:44:53.675Z,94.61
2022-08-22T04:45:53.872Z,94.82
2022-08-22T04:46:54.028Z,94.41
2022-08-22T04:47:54.436Z,94.51
2022-08-22T04:48:54.393Z,94.21
2022-08-22T04:49:54.578Z,94.10
2022-08-22T04:50:54.761Z,94.31
2022-08-22T04:51:56.722Z,94.00
2022-08-22T04:52:55.715Z,93.80
2022-08-22T04:54:28.163Z,94.21
2022-08-22T04:54:56.250Z,94.21
2022-08-22T04:55:55.776Z,93.90
2022-08-22T04:56:56.751Z,94.10
2022-08-22T04:57:56.753Z,93.90
2022-08-22T04:58:56.759Z,94.21
2022-08-22T04:59:56.269Z,93.60
2022-08-22T05:00:56.381Z,93.70
2022-08-22T05:01:56.591Z,93.60
2022-08-22T05:02:57.627Z,93.70
2022-08-22T05:03:56.850Z,92.99
2022-08-22T05:04:57.753Z,92.94
2022-08-22T05:05:57.747Z,92.99
2022-08-22T05:06:58.765Z,93.09
2022-08-22T05:07:57.526Z,93.15
2022-08-22T05:08:57.731Z,93.49
2022-08-22T05:09:57.845Z,93.29
2022-08-22T05:10:58.775Z,93.45
2022-08-22T05:11:58.280Z,94.00
2022-08-22T05:12:58.428Z,94.21
2022-08-22T05:13:58.564Z,93.96
2022-08-22T05:14:58.709Z,94.37
2022-08-22T05:15:58.921Z,94.37
2022-08-22T05:16:59.759Z,94.57
2022-08-22T05:17:59.479Z,94.57
2022-08-22T05:18:59.438Z,94.77
2022-08-22T05:19:59.771Z,94.17
2022-08-22T05:20:59.818Z,94.12
2022-08-22T05:21:59.978Z,94.22
2022-08-22T05:23:00.122Z,93.30
2022-08-22T05:24:01.246Z,93.61
2022-08-22T05:25:01.485Z,93.30
2022-08-22T05:26:00.771Z,93.57
2022-08-22T05:27:01.301Z,93.26
2022-08-22T05:28:01.287Z,93.26
2022-08-22T05:29:01.194Z,92.96
2022-08-22T05:30:03.254Z,92.35
2022-08-22T05:31:02.784Z,92.51
2022-08-22T05:32:01.640Z,92.31
2022-08-22T05:33:01.822Z,92.10
2022-08-22T05:34:01.967Z,92.31
2022-08-22T05:35:02.757Z,91.50
2022-08-22T05:36:02.255Z,92.10
2022-08-22T05:37:03.393Z,92.00
2022-08-22T05:38:02.611Z,91.86
2022-08-22T05:39:02.769Z,91.66
2022-08-22T05:40:02.930Z,91.66
2022-08-22T05:41:03.079Z,91.86
2022-08-22T05:42:03.761Z,91.55
2022-08-22T05:43:03.418Z,91.46
2022-08-22T05:44:04.268Z,91.55
2022-08-22T05:45:03.749Z,91.46
2022-08-22T05:46:03.882Z,91.11
2022-08-22T05:47:04.016Z,90.40
2022-08-22T05:48:04.282Z,90.60
2022-08-22T05:49:04.295Z,90.60
2022-08-22T05:50:05.270Z,90.56
2022-08-22T05:51:05.271Z,90.60
2022-08-22T05:52:04.882Z,90.66
2022-08-22T05:53:05.147Z,90.45
2022-08-22T05:54:05.288Z,89.91
2022-08-22T05:55:05.468Z,89.81
2022-08-22T05:56:05.627Z,89.81
2022-08-22T05:57:07.903Z,89.46
2022-08-22T05:58:07.785Z,89.16
2022-08-22T05:59:08.590Z,88.65
2022-08-22T06:00:06.282Z,88.85
2022-08-22T06:01:07.267Z,89.56
2022-08-22T06:02:07.719Z,88.92
2022-08-22T06:03:06.809Z,88.77
2022-08-22T06:04:07.773Z,87.32
2022-08-22T06:05:11.763Z,86.36
2022-08-22T06:06:08.384Z,85.56
2022-08-22T06:07:07.778Z,84.37
2022-08-22T06:08:07.692Z,83.76
2022-08-22T06:09:07.851Z,83.26
2022-08-22T06:10:08.028Z,83.22
2022-08-22T06:11:08.772Z,83.42
2022-08-22T06:12:11.619Z,82.42
2022-08-22T06:13:11.427Z,82.21
2022-08-22T06:14:08.832Z,83.12
2022-08-22T06:15:11.839Z,83.76
2022-08-22T06:16:09.260Z,83.76
2022-08-22T06:17:10.276Z,83.56
2022-08-22T06:18:09.537Z,84.01
2022-08-22T06:19:19.091Z,84.27
2022-08-22T06:20:11.284Z,84.51
2022-08-22T06:21:10.141Z,84.21
2022-08-22T06:22:10.286Z,85.02
2022-08-22T06:23:10.470Z,84.41
2022-08-22T06:24:11.277Z,84.01
2022-08-22T06:25:43.714Z,84.47
2022-08-22T06:26:20.489Z,83.46
2022-08-22T06:27:12.191Z,84.17
2022-08-22T06:28:12.304Z,83.76
2022-08-22T06:29:11.536Z,83.12
2022-08-22T06:30:11.655Z,83.62
2022-08-22T06:31:12.943Z,82.51
2022-08-22T06:32:12.065Z,82.31
2022-08-22T06:33:12.587Z,82.42
2022-08-22T06:34:12.330Z,81.71
2022-08-22T06:35:12.504Z,82.11
2022-08-22T06:36:12.674Z,82.05
2022-08-22T06:37:12.829Z,82.56
2022-08-22T06:38:12.970Z,83.26
2022-08-22T06:39:13.126Z,83.36
2022-08-22T06:40:13.339Z,83.36
2022-08-22T06:41:13.823Z,83.26
2022-08-22T06:42:16.703Z,83.36
2022-08-22T06:43:14.836Z,83.06
2022-08-22T06:44:14.918Z,83.06
2022-08-22T06:45:14.171Z,83.46
2022-08-22T06:46:14.367Z,82.65
2022-08-22T06:47:14.864Z,81.55
2022-08-22T06:48:15.313Z,82.05
2022-08-22T06:49:14.821Z,82.15
2022-08-22T06:50:14.984Z,82.35
2022-08-22T06:51:15.334Z,81.41
2022-08-22T06:52:15.824Z,81.21
2022-08-22T06:53:16.317Z,81.21
2022-08-22T06:54:16.321Z,81.47
2022-08-22T06:55:15.838Z,80.57
2022-08-22T06:56:16.822Z,80.93
2022-08-22T06:57:16.227Z,80.43
2022-08-22T06:58:17.317Z,80.93
2022-08-22T06:59:16.559Z,80.93
2022-08-22T07:00:17.316Z,79.52
2022-08-22T07:01:16.922Z,80.02
2022-08-22T07:02:17.122Z,79.82
2022-08-22T07:03:17.835Z,79.62
2022-08-22T07:04:17.482Z,79.72
2022-08-22T07:05:17.660Z,79.58
2022-08-22T07:06:17.809Z,80.05
2022-08-22T07:07:17.957Z,79.64
2022-08-22T07:08:18.107Z,79.44
2022-08-22T07:09:18.328Z,78.74
2022-08-22T07:10:18.483Z,78.50
2022-08-22T07:11:18.609Z,78.46
2022-08-22T07:12:18.758Z,78.56
2022-08-22T07:13:19.828Z,77.86
2022-08-22T07:14:19.336Z,77.16
2022-08-22T07:15:19.222Z,77.02
2022-08-22T07:16:19.374Z,76.32
2022-08-22T07:17:19.553Z,77.22
2022-08-22T07:18:19.726Z,76.72
2022-08-22T07:19:19.908Z,76.78
2022-08-22T07:20:20.090Z,76.28
2022-08-22T07:21:20.231Z,75.78
2022-08-22T07:22:20.461Z,74.77
2022-08-22T07:23:20.626Z,74.81
2022-08-22T07:24:21.327Z,74.88
2022-08-22T07:25:20.968Z,74.44
2022-08-22T07:26:21.124Z,74.74
2022-08-22T07:27:21.317Z,74.57
2022-08-22T07:28:21.473Z,74.84
2022-08-22T07:29:23.351Z,74.88
2022-08-22T07:30:27.820Z,74.84
2022-08-22T07:31:22.955Z,74.54
2022-08-22T07:32:22.214Z,73.64
2022-08-22T07:33:26.820Z,74.40
2022-08-22T07:34:22.606Z,73.30
2022-08-22T07:35:22.774Z,71.86
2022-08-22T07:36:23.285Z,71.96
2022-08-22T07:37:24.120Z,71.77
2022-08-22T07:38:23.306Z,72.93
2022-08-22T07:39:23.451Z,70.93
2022-08-22T07:40:23.645Z,71.03
2022-08-22T07:41:24.328Z,70.62
2022-08-22T07:42:27.466Z,69.69
2022-08-22T07:43:24.182Z,68.09
2022-08-22T07:44:24.354Z,68.29
2022-08-22T07:45:25.333Z,66.75
2022-08-22T07:46:24.715Z,66.39
2022-08-22T07:47:26.147Z,66.53
2022-08-22T07:48:26.588Z,63.70
2022-08-22T07:49:26.227Z,64.97
2022-08-22T07:50:25.464Z,62.97
2022-08-22T07:51:25.649Z,62.84
2022-08-22T07:52:25.784Z,62.61
2022-08-22T07:53:25.930Z,63.31
2022-08-22T07:54:27.083Z,61.11
2022-08-22T07:55:26.839Z,61.91
2022-08-22T07:56:27.337Z,62.54
2022-08-22T07:57:26.737Z,61.27
2022-08-22T07:58:26.886Z,60.71
2022-08-22T07:59:27.080Z,62.04
2022-08-22T08:00:27.840Z,62.76
2022-08-22T08:01:27.537Z,61.29
2022-08-22T08:02:28.346Z,61.87
2022-08-22T08:03:28.339Z,61.99
2022-08-22T08:04:28.010Z,61.59
2022-08-22T08:05:28.347Z,62.70
2022-08-22T08:06:28.351Z,63.19
2022-08-22T08:07:28.844Z,63.09
2022-08-22T08:08:30.342Z,62.16
2022-08-22T08:09:28.987Z,61.54
2022-08-22T08:10:29.140Z,62.70
2022-08-22T08:11:29.252Z,61.60
2022-08-22T08:12:29.861Z,60.61
2022-08-22T08:13:29.617Z,61.13
2022-08-22T08:14:29.754Z,61.83
2022-08-22T08:15:30.853Z,61.93
2022-08-22T08:16:30.256Z,61.51
2022-08-22T08:17:32.394Z,58.68
2022-08-22T08:18:32.357Z,58.68
2022-08-22T08:19:31.357Z,58.45
2022-08-22T08:20:30.829Z,57.70
2022-08-22T08:21:31.100Z,56.77
2022-08-22T08:22:31.221Z,57.57
2022-08-22T08:23:31.340Z,56.55
2022-08-22T08:24:40.036Z,56.85
2022-08-22T08:25:32.698Z,56.95
2022-08-22T08:26:31.945Z,57.64
2022-08-22T08:28:05.521Z,57.35
2022-08-22T08:28:32.252Z,57.75
2022-08-22T08:29:32.366Z,57.77
2022-08-22T08:30:32.504Z,58.89
2022-08-22T08:31:32.899Z,59.99
2022-08-22T08:32:32.901Z,60.29
2022-08-22T08:33:33.032Z,59.59
2022-08-22T08:34:34.720Z,60.69
2022-08-22T08:35:42.168Z,60.72
2022-08-22T08:36:34.520Z,60.35
2022-08-22T08:37:33.635Z,60.32
2022-08-22T08:38:33.910Z,60.75
2022-08-22T08:39:35.276Z,61.52
2022-08-22T08:40:35.110Z,61.41
2022-08-22T08:41:34.351Z,60.42
2022-08-22T08:42:34.481Z,60.32
2022-08-22T08:43:34.634Z,60.02
2022-08-22T08:44:34.801Z,59.72
2022-08-22T08:45:34.937Z,59.85
2022-08-22T08:46:35.078Z,60.15
2022-08-22T08:47:35.305Z,60.02
2022-08-22T08:48:35.435Z,59.82
2022-08-22T08:49:35.570Z,60.05
2022-08-22T08:50:36.395Z,60.05
2022-08-22T08:51:36.903Z,60.25
2022-08-22T08:52:36.273Z,59.95
2022-08-22T08:53:36.416Z,59.85
2022-08-22T08:54:36.565Z,59.85
2022-08-22T08:55:37.406Z,59.55
2022-08-22T08:56:36.890Z,59.55
2022-08-22T08:58:10.467Z,59.58
2022-08-22T08:58:38.092Z,60.35
2022-08-22T09:00:39.445Z,59.45
2022-08-22T09:01:37.993Z,59.32
2022-08-22T09:02:40.506Z,58.89
2022-08-22T09:03:38.298Z,58.40
2022-08-22T09:04:38.399Z,58.40
2022-08-22T09:05:39.441Z,58.33
2022-08-22T09:06:38.780Z,58.72
2022-08-22T09:07:38.927Z,58.45
2022-08-22T09:08:39.170Z,58.42
2022-08-22T09:09:39.938Z,58.92
2022-08-22T09:10:39.518Z,58.03
2022-08-22T09:11:39.649Z,58.42
2022-08-22T09:12:52.258Z,57.63
2022-08-22T09:13:41.093Z,58.07
2022-08-22T09:14:40.388Z,57.57
2022-08-22T09:15:40.505Z,57.30
2022-08-22T09:16:46.205Z,57.40
2022-08-22T09:17:42.443Z,58.07
2022-08-22T09:18:41.077Z,57.47
2022-08-22T09:19:41.221Z,56.98
2022-08-22T09:20:41.348Z,57.77
2022-08-22T09:21:41.488Z,58.07
2022-08-22T09:22:49.849Z,57.54
2022-08-22T09:23:43.471Z,57.54
2022-08-22T09:24:41.958Z,57.75
2022-08-22T09:25:42.952Z,57.64
2022-08-22T09:26:42.356Z,56.85
2022-08-22T09:27:42.962Z,57.64
2022-08-22T09:28:42.706Z,58.04
2022-08-22T09:29:51.442Z,57.64
2022-08-22T09:30:44.948Z,57.35
2022-08-22T09:31:51.947Z,56.62
2022-08-22T09:32:44.490Z,57.22
2022-08-22T09:33:44.448Z,58.01
2022-08-22T09:34:43.965Z,58.41
2022-08-22T09:35:44.019Z,56.99
2022-08-22T09:36:44.165Z,56.59
2022-08-22T09:37:44.953Z,57.49
2022-08-22T09:38:47.965Z,56.40
2022-08-22T09:39:44.734Z,55.97
2022-08-22T09:40:44.963Z,56.27
2022-08-22T09:41:45.471Z,56.89
2022-08-22T09:42:46.436Z,56.17
2022-08-22T09:43:48.724Z,56.67
2022-08-22T09:44:45.507Z,55.77
2022-08-22T09:45:47.120Z,56.34
2022-08-22T09:46:45.895Z,56.44
2022-08-22T09:47:46.954Z,57.04
2022-08-22T09:48:46.209Z,56.34
2022-08-22T09:49:46.962Z,56.54
2022-08-22T09:50:46.562Z,57.43
2022-08-22T09:51:47.460Z,56.77
2022-08-22T09:52:47.455Z,57.96
2022-08-22T09:53:46.984Z,56.96
2022-08-22T09:54:47.103Z,56.57
2022-08-22T09:55:47.473Z,56.87
2022-08-22T09:56:47.487Z,56.94
2022-08-22T09:57:47.667Z,56.44
2022-08-22T09:59:22.311Z,56.84
2022-08-22T09:59:48.994Z,57.43
2022-08-22T10:00:54.736Z,56.57
2022-08-22T10:01:49.993Z,56.77
2022-08-22T10:02:53.711Z,56.37
2022-08-22T10:03:49.751Z,57.79
2022-08-22T10:04:49.494Z,56.59
2022-08-22T10:05:49.146Z,57.86
2022-08-22T10:06:49.303Z,56.77
2022-08-22T10:07:52.753Z,56.96
2022-08-22T10:08:49.604Z,56.67
2022-08-22T10:09:49.742Z,56.37
2022-08-22T10:10:51.005Z,57.34
2022-08-22T10:11:50.130Z,58.13
2022-08-22T10:12:50.999Z,57.83
2022-08-22T10:13:56.620Z,57.31
2022-08-22T10:14:51.618Z,58.30
2022-08-22T10:15:51.009Z,58.47
2022-08-22T10:16:51.056Z,57.38
2022-08-22T10:17:51.228Z,56.98
2022-08-22T10:18:52.819Z,56.68
2022-08-22T10:19:52.502Z,55.82
2022-08-22T10:20:51.743Z,56.41
2022-08-22T10:21:51.982Z,57.31
2022-08-22T10:22:52.127Z,56.41
2022-08-22T10:23:52.287Z,55.89
2022-08-22T10:24:52.420Z,56.59
2022-08-22T10:25:52.562Z,55.89
2022-08-22T10:26:53.010Z,56.02
2022-08-22T10:27:52.907Z,56.78
2022-08-22T10:29:26.498Z,56.59
2022-08-22T10:29:54.042Z,56.49
2022-08-22T10:30:54.045Z,56.02
2022-08-22T10:31:59.039Z,57.11
2022-08-22T10:32:54.676Z,56.78
2022-08-22T10:33:53.803Z,56.29
2022-08-22T10:34:53.992Z,56.41
2022-08-22T10:35:55.046Z,56.29
2022-08-22T10:36:54.572Z,56.29
2022-08-22T10:37:54.551Z,55.87
2022-08-22T10:38:54.713Z,56.16
2022-08-22T10:39:54.934Z,55.79
2022-08-22T10:40:55.097Z,55.36
2022-08-22T10:41:55.201Z,55.36
2022-08-22T10:42:55.372Z,56.04
2022-08-22T10:44:00.497Z,55.61
2022-08-22T10:44:56.666Z,53.33
2022-08-22T10:45:56.547Z,53.92
2022-08-22T10:46:55.993Z,55.29
2022-08-22T10:47:56.171Z,55.41
2022-08-22T10:48:56.573Z,54.52
2022-08-22T10:49:57.044Z,55.41
2022-08-22T10:50:57.544Z,54.72
2022-08-22T10:51:56.849Z,55.78
2022-08-22T10:52:57.014Z,55.09
2022-08-22T10:53:57.571Z,53.78
2022-08-22T10:54:57.292Z,53.78
2022-08-22T10:55:57.455Z,55.73
2022-08-22T10:56:58.061Z,53.58
2022-08-22T10:57:57.776Z,53.75
2022-08-22T10:58:58.050Z,53.88
2022-08-22T11:00:31.595Z,55.30
2022-08-22T11:00:59.107Z,53.72
2022-08-22T11:01:58.860Z,54.12
2022-08-22T11:02:59.761Z,53.75
2022-08-22T11:03:59.598Z,52.26
2022-08-22T11:04:59.087Z,52.56
2022-08-22T11:06:00.088Z,52.36
2022-08-22T11:06:59.339Z,52.78
2022-08-22T11:08:00.083Z,52.76
2022-08-22T11:08:59.706Z,52.26
2022-08-22T11:09:59.922Z,51.35
2022-08-22T11:11:00.146Z,52.04
2022-08-22T11:12:00.295Z,50.56
2022-08-22T11:13:00.737Z,51.60
2022-08-22T11:14:00.618Z,52.51
2022-08-22T11:15:00.764Z,52.22
2022-08-22T11:16:00.997Z,53.33
2022-08-22T11:17:02.120Z,53.36
2022-08-22T11:18:02.355Z,53.83
2022-08-22T11:19:02.748Z,54.02
2022-08-22T11:20:01.619Z,53.63
2022-08-22T11:21:02.144Z,54.92
2022-08-22T11:22:01.934Z,54.02
2022-08-22T11:23:02.291Z,52.73
2022-08-22T11:24:03.277Z,53.13
2022-08-22T11:25:04.643Z,53.56
2022-08-22T11:26:05.094Z,54.55
2022-08-22T11:27:02.743Z,53.96
2022-08-22T11:28:02.989Z,53.36
2022-08-22T11:29:13.142Z,53.78
2022-08-22T11:30:44.075Z,54.38
2022-08-22T11:31:07.328Z,55.04
2022-08-22T11:32:06.117Z,52.71
2022-08-22T11:33:04.495Z,52.49
2022-08-22T11:34:04.629Z,52.19
2022-08-22T11:35:09.346Z,52.02
2022-08-22T11:36:04.577Z,53.01
2022-08-22T11:37:10.990Z,52.71
2022-08-22T11:38:06.628Z,53.53
2022-08-22T11:39:05.139Z,52.73
2022-08-22T11:40:05.697Z,53.56
2022-08-22T11:41:05.452Z,53.75
2022-08-22T11:42:06.136Z,54.55
2022-08-22T11:43:07.353Z,55.41
2022-08-22T11:44:07.631Z,55.32
2022-08-22T11:45:06.132Z,54.52
2022-08-22T11:46:06.635Z,55.61
2022-08-22T11:47:07.169Z,56.11
2022-08-22T11:48:06.505Z,55.21
2022-08-22T11:49:06.631Z,54.79
2022-08-22T11:50:13.369Z,54.47
2022-08-22T11:51:13.115Z,54.05
2022-08-22T11:52:08.483Z,54.32
2022-08-22T11:53:07.737Z,52.69
2022-08-22T11:54:07.609Z,51.07
2022-08-22T11:55:07.750Z,51.79
2022-08-22T11:56:07.914Z,50.61
2022-08-22T11:57:08.056Z,51.03
2022-08-22T11:58:08.241Z,50.53
2022-08-22T11:59:08.382Z,52.17
2022-08-22T12:00:08.514Z,50.98
2022-08-22T12:01:11.791Z,51.20
2022-08-22T12:02:11.072Z,50.31
2022-08-22T12:03:09.669Z,51.32
2022-08-22T12:04:10.190Z,51.79
2022-08-22T12:05:10.133Z,51.50
2022-08-22T12:06:09.854Z,53.13
2022-08-22T12:07:09.979Z,52.12
2022-08-22T12:08:10.212Z,50.51
2022-08-22T12:09:10.366Z,49.42
2022-08-22T12:10:13.768Z,51.00
2022-08-22T12:11:10.741Z,49.64
2022-08-22T12:12:11.638Z,49.74
2022-08-22T12:13:11.668Z,49.72
2022-08-22T12:14:11.163Z,50.19
2022-08-22T12:15:11.349Z,50.85
2022-08-22T12:16:11.494Z,50.66
2022-08-22T12:17:11.694Z,49.37
2022-08-22T12:18:15.327Z,49.08
2022-08-22T12:19:13.032Z,49.87
2022-08-22T12:20:16.071Z,48.88
2022-08-22T12:21:13.451Z,49.08
2022-08-22T12:22:12.560Z,48.71
2022-08-22T12:23:13.647Z,49.30
2022-08-22T12:24:20.858Z,49.69
2022-08-22T12:25:14.051Z,50.19
2022-08-22T12:26:14.141Z,48.51
2022-08-22T12:27:13.405Z,48.71
2022-08-22T12:28:14.556Z,48.93
2022-08-22T12:29:15.527Z,49.72
2022-08-22T12:30:14.389Z,52.39
2022-08-22T12:31:14.140Z,48.93
2022-08-22T12:32:49.058Z,51.32
2022-08-22T12:33:17.298Z,49.84
2022-08-22T12:34:16.198Z,49.87
2022-08-22T12:35:14.791Z,50.68
2022-08-22T12:36:18.374Z,51.30
2022-08-22T12:37:15.199Z,52.02
2022-08-22T12:38:29.228Z,52.81
2022-08-22T12:39:16.549Z,53.67
2022-08-22T12:40:15.831Z,53.78
2022-08-22T12:41:28.477Z,53.97
2022-08-22T12:42:17.172Z,55.26
2022-08-22T12:43:18.743Z,54.89
2022-08-22T12:44:17.285Z,53.90
2022-08-22T12:45:17.685Z,53.20
2022-08-22T12:46:16.925Z,54.10